Time;durP1;ratioP1;P1;durP2;ratioP2;P2;SDS_P1;SDS_P2;PMS_P1;PMS_P2;Temp;Humidity;BMP_temperature;BMP_pressure;BME280_temperature;BME280_humidity;BME280_pressure;Samples;Min_cycle;Max_cycle;Signal;HPM_P1;HPM_P2
2024/01/15 00:02:44;;;;;;;18.60;11.80;;;;;;;0.16;94.16;97710.15;215145;1271;140623;-74
2024/01/15 00:07:46;;;;;;;20.20;11.00;;;;;;;0.12;94.01;97700.64;215526;1269;140283;-74
2024/01/15 00:12:50;;;;;;;17.80;11.00;;;;;;;0.12;94.24;97687.75;215858;1269;141040;-74
2024/01/15 00:17:53;;;;;;;14.90;10.10;;;;;;;0.12;94.48;97681.73;215477;1269;141590;-75
2024/01/15 00:22:55;;;;;;;15.20;8.60;;;;;;;0.14;94.18;97672.20;215382;1268;140747;-74
2024/01/15 00:27:58;;;;;;;21.10;10.60;;;;;;;0.13;94.07;97659.45;215553;1269;141061;-75
2024/01/15 00:33:02;;;;;;;16.00;9.20;;;;;;;0.13;94.34;97654.05;215610;1271;141666;-71
2024/01/15 00:38:07;;;;;;;17.00;10.80;;;;;;;0.12;93.81;97644.63;216243;1267;150594;-73
2024/01/15 00:43:12;;;;;;;16.70;9.80;;;;;;;0.11;93.60;97633.42;215431;1273;140480;-74
2024/01/15 00:48:15;;;;;;;20.00;12.00;;;;;;;0.11;94.10;97630.98;215522;1270;141604;-73
2024/01/15 00:53:18;;;;;;;11.90;8.00;;;;;;;0.10;93.88;97626.66;215258;1270;141802;-73
2024/01/15 00:58:22;;;;;;;16.60;10.70;;;;;;;0.10;93.78;97625.13;215315;1267;140928;-75
2024/01/15 01:03:25;;;;;;;19.00;10.20;;;;;;;0.11;93.69;97621.34;215644;1269;139866;-74
2024/01/15 01:08:29;;;;;;;18.60;11.50;;;;;;;0.11;94.06;97606.63;215488;1270;140337;-74
2024/01/15 01:13:32;;;;;;;13.10;8.70;;;;;;;0.12;93.71;97607.90;215704;1267;141071;-76
2024/01/15 01:18:36;;;;;;;14.60;8.60;;;;;;;0.12;93.72;97603.23;216792;1269;140906;-74
2024/01/15 01:23:39;;;;;;;17.00;11.30;;;;;;;0.13;93.71;97592.70;216422;1268;140960;-75
2024/01/15 01:28:42;;;;;;;17.20;10.30;;;;;;;0.13;93.69;97581.48;215648;1268;140639;-73
2024/01/15 01:33:45;;;;;;;19.20;11.90;;;;;;;0.13;93.81;97569.84;216678;1266;141087;-73
2024/01/15 01:38:48;;;;;;;14.80;10.10;;;;;;;0.14;93.45;97568.46;215984;1267;142150;-75
2024/01/15 01:43:51;;;;;;;17.40;10.90;;;;;;;0.12;93.39;97561.23;215938;1270;141587;-74
2024/01/15 01:48:56;;;;;;;18.00;11.30;;;;;;;0.11;93.53;97558.05;217553;1267;141872;-75
2024/01/15 01:54:00;;;;;;;14.10;9.10;;;;;;;0.11;93.36;97543.11;217294;1267;140514;-76
2024/01/15 01:59:04;;;;;;;17.30;10.80;;;;;;;0.11;93.36;97534.32;216108;1269;139837;-75
2024/01/15 02:04:09;;;;;;;13.50;9.40;;;;;;;0.12;93.60;97526.73;215761;1270;142221;-73
2024/01/15 02:09:14;;;;;;;23.60;9.40;;;;;;;0.13;93.44;97525.20;215434;1267;140800;-70
2024/01/15 02:14:18;;;;;;;13.90;9.50;;;;;;;0.11;93.35;97519.77;215567;1270;140819;-70
2024/01/15 02:19:21;;;;;;;16.00;11.90;;;;;;;0.07;93.29;97515.39;215679;1267;140753;-72
2024/01/15 02:24:25;;;;;;;16.40;9.80;;;;;;;0.04;93.35;97511.65;215457;1266;140600;-77
2024/01/15 02:29:33;;;;;;;17.30;10.10;;;;;;;0.02;93.44;97506.31;215728;1267;140265;-78
2024/01/15 02:34:38;;;;;;;17.30;10.20;;;;;;;-0.04;93.86;97498.27;215606;1268;140949;-75
2024/01/15 02:39:41;;;;;;;14.70;9.60;;;;;;;-0.10;93.67;97492.34;215679;1267;140891;-75
2024/01/15 02:44:45;;;;;;;15.10;10.70;;;;;;;-0.15;93.89;97483.66;215386;1267;142687;-75
2024/01/15 02:49:48;;;;;;;15.30;9.40;;;;;;;-0.15;94.15;97480.23;215674;1270;143806;-75
2024/01/15 02:54:52;;;;;;;17.10;10.90;;;;;;;-0.16;93.97;97469.28;215649;1270;142254;-77
2024/01/15 02:59:55;;;;;;;14.30;10.10;;;;;;;-0.17;94.29;97457.77;215446;1267;141200;-76
2024/01/15 03:04:58;;;;;;;13.70;9.20;;;;;;;-0.16;94.46;97447.34;215402;1267;141315;-74
2024/01/15 03:10:02;;;;;;;15.20;9.10;;;;;;;-0.17;94.23;97449.20;215405;1267;140536;-75
2024/01/15 03:15:05;;;;;;;12.80;9.30;;;;;;;-0.17;94.09;97442.95;215660;1270;141832;-75
2024/01/15 03:20:09;;;;;;;16.70;11.00;;;;;;;-0.21;94.44;97430.99;215378;1267;140320;-77
2024/01/15 03:25:13;;;;;;;14.20;9.80;;;;;;;-0.22;94.25;97427.21;215837;1270;141739;-74
2024/01/15 03:30:17;;;;;;;10.80;8.90;;;;;;;-0.21;94.48;97420.48;215682;1269;141117;-74
2024/01/15 03:35:20;;;;;;;11.60;6.90;;;;;;;-0.20;94.36;97423.45;215746;1267;141544;-75
2024/01/15 03:40:28;;;;;;;18.60;10.10;;;;;;;-0.17;94.60;97417.70;217741;1266;142713;-73
2024/01/15 03:45:32;;;;;;;13.20;8.40;;;;;;;-0.18;94.14;97415.13;216683;1266;141013;-73
2024/01/15 03:50:35;;;;;;;12.50;8.30;;;;;;;-0.19;94.39;97410.91;217308;1269;141354;-73
2024/01/15 03:55:39;;;;;;;13.30;8.20;;;;;;;-0.18;94.32;97405.59;215762;1267;140547;-75
2024/01/15 04:00:43;;;;;;;16.30;9.00;;;;;;;-0.17;94.41;97396.14;217699;1265;141019;-75
2024/01/15 04:05:46;;;;;;;11.00;7.10;;;;;;;-0.17;94.40;97387.61;216423;1270;141567;-75
2024/01/15 04:10:49;;;;;;;15.20;9.80;;;;;;;-0.21;94.27;97382.15;215540;1267;141334;-74
2024/01/15 04:15:52;;;;;;;15.00;9.00;;;;;;;-0.26;94.50;97380.99;215291;1267;141558;-75
2024/01/15 04:20:55;;;;;;;14.10;9.20;;;;;;;-0.29;94.18;97377.38;215578;1265;140941;-74
2024/01/15 04:25:58;;;;;;;12.00;8.90;;;;;;;-0.31;94.56;97373.80;215592;1267;143113;-75
2024/01/15 04:31:02;;;;;;;13.80;8.90;;;;;;;-0.33;94.50;97366.42;215571;1267;141398;-75
2024/01/15 04:36:05;;;;;;;15.40;9.10;;;;;;;-0.36;94.07;97368.34;215635;1267;142098;-73
2024/01/15 04:41:12;;;;;;;14.80;8.70;;;;;;;-0.35;94.57;97367.38;215613;1269;140160;-74
2024/01/15 04:46:15;;;;;;;18.80;10.90;;;;;;;-0.35;94.45;97362.98;216196;1269;140284;-76
2024/01/15 04:51:18;;;;;;;11.30;8.30;;;;;;;-0.32;94.51;97358.59;215769;1268;141421;-77
2024/01/15 04:56:20;;;;;;;16.90;11.60;;;;;;;-0.31;94.17;97360.30;215504;1266;140694;-75
2024/01/15 05:01:23;;;;;;;13.70;9.60;;;;;;;-0.31;94.40;97354.42;215656;1268;142283;-78
2024/01/15 05:06:26;;;;;;;14.50;9.30;;;;;;;-0.30;94.67;97355.33;215504;1268;140726;-73
2024/01/15 05:11:29;;;;;;;20.10;12.20;;;;;;;-0.31;94.52;97351.69;215593;1269;141575;-75
2024/01/15 05:16:33;;;;;;;17.40;11.00;;;;;;;-0.33;94.55;97341.20;215614;1269;141152;-74
2024/01/15 05:21:36;;;;;;;15.10;8.80;;;;;;;-0.35;94.30;97327.27;216496;1266;207398;-74
2024/01/15 05:26:39;;;;;;;13.30;10.50;;;;;;;-0.36;94.11;97312.17;217242;1267;140978;-72
2024/01/15 05:31:42;;;;;;;12.90;8.80;;;;;;;-0.36;94.46;97303.32;215950;1267;140995;-74
2024/01/15 05:36:47;;;;;;;15.20;9.20;;;;;;;-0.35;94.35;97305.80;217612;1267;140959;-75
2024/01/15 05:41:51;;;;;;;13.70;10.30;;;;;;;-0.34;94.18;97302.16;216647;1267;141680;-74
2024/01/15 05:46:53;;;;;;;8.30;5.60;;;;;;;-0.33;94.50;97304.80;215548;1269;141389;-74
2024/01/15 05:51:57;;;;;;;14.70;9.20;;;;;;;-0.32;94.43;97307.38;215769;1267;140836;-75
2024/01/15 05:57:00;;;;;;;13.60;9.80;;;;;;;-0.32;94.22;97299.96;215580;1267;139831;-72
2024/01/15 06:02:03;;;;;;;16.00;9.80;;;;;;;-0.30;94.60;97295.70;215917;1269;140820;-72
2024/01/15 06:07:06;;;;;;;10.80;8.00;;;;;;;-0.32;94.52;97290.64;215684;1266;142340;-73
2024/01/15 06:12:09;;;;;;;14.30;10.10;;;;;;;-0.33;94.49;97290.51;216259;1269;141345;-74
2024/01/15 06:17:12;;;;;;;14.30;9.40;;;;;;;-0.33;94.65;97291.92;216438;1267;140787;-75
2024/01/15 06:22:15;;;;;;;9.30;6.70;;;;;;;-0.33;94.64;97284.27;215551;1266;140892;-76
2024/01/15 06:27:18;;;;;;;14.00;9.20;;;;;;;-0.35;94.67;97286.18;215557;1269;141661;-75
2024/01/15 06:32:21;;;;;;;12.80;8.20;;;;;;;-0.37;94.68;97283.67;215652;1267;140759;-73
2024/01/15 06:37:24;;;;;;;13.90;8.90;;;;;;;-0.37;95.05;97287.23;216407;1267;140269;-75
2024/01/15 06:42:27;;;;;;;13.30;9.30;;;;;;;-0.40;94.84;97288.59;215597;1267;140422;-72
2024/01/15 06:47:32;;;;;;;8.50;6.60;;;;;;;-0.40;94.91;97290.28;215541;1267;140392;-74
2024/01/15 06:52:36;;;;;;;10.60;6.80;;;;;;;-0.42;94.93;97301.82;215601;1267;141274;-75
2024/01/15 06:57:39;;;;;;;12.70;8.40;;;;;;;-0.42;95.20;97304.85;215507;1268;141772;-74
2024/01/15 07:02:42;;;;;;;12.90;8.10;;;;;;;-0.42;95.07;97313.06;215651;1265;140776;-75
2024/01/15 07:07:44;;;;;;;12.70;9.20;;;;;;;-0.43;94.93;97325.23;216063;1267;140483;-76
2024/01/15 07:12:47;;;;;;;13.30;9.30;;;;;;;-0.44;95.42;97331.33;215881;1269;141534;-73
2024/01/15 07:17:50;;;;;;;12.70;8.10;;;;;;;-0.43;94.84;97333.65;215860;1267;140327;-73
2024/01/15 07:22:54;;;;;;;9.70;7.50;;;;;;;-0.43;94.92;97343.87;215940;1268;141184;-74
2024/01/15 07:28:01;;;;;;;7.80;5.40;;;;;;;-0.43;94.71;97356.08;215938;1270;139758;-76
2024/01/15 07:33:05;;;;;;;8.40;6.50;;;;;;;-0.44;94.76;97364.30;216065;1266;140946;-75
2024/01/15 07:38:09;;;;;;;11.90;5.90;;;;;;;-0.43;94.52;97362.35;215940;1267;140287;-75
2024/01/15 07:43:12;;;;;;;36.60;28.00;;;;;;;-0.38;94.24;97363.05;215969;1269;140671;-72
2024/01/15 07:48:16;;;;;;;9.70;8.20;;;;;;;-0.32;93.98;97360.64;216033;1265;141471;-76
2024/01/15 07:53:19;;;;;;;10.20;6.70;;;;;;;-0.24;94.15;97365.99;215606;1266;140037;-75
2024/01/15 07:58:22;;;;;;;10.20;7.60;;;;;;;-0.19;93.51;97368.29;215931;1266;142302;-72
2024/01/15 08:03:27;;;;;;;12.30;9.40;;;;;;;-0.11;93.65;97372.79;216384;1265;140645;-73
2024/01/15 08:08:30;;;;;;;10.60;5.40;;;;;;;-0.06;93.29;97364.65;215830;1268;140400;-74
2024/01/15 08:13:33;;;;;;;10.50;6.30;;;;;;;-0.02;93.08;97358.67;217012;1266;140886;-74
2024/01/15 08:18:36;;;;;;;10.00;6.30;;;;;;;-0.02;92.83;97371.24;216193;1267;140774;-75
2024/01/15 08:23:39;;;;;;;11.00;7.40;;;;;;;0.00;93.25;97379.50;215828;1267;141130;-75
2024/01/15 08:28:41;;;;;;;10.40;6.90;;;;;;;0.06;92.77;97370.16;215841;1270;140580;-73
2024/01/15 08:33:44;;;;;;;11.10;7.70;;;;;;;0.13;93.02;97367.77;216045;1267;139923;-76
2024/01/15 08:38:47;;;;;;;8.80;6.70;;;;;;;0.18;92.76;97365.84;216309;1266;141946;-76
2024/01/15 08:43:49;;;;;;;9.30;6.10;;;;;;;0.23;93.17;97360.48;215662;1267;139931;-76
2024/01/15 08:48:52;;;;;;;10.40;6.70;;;;;;;0.28;92.46;97354.23;216320;1267;140405;-73
2024/01/15 08:53:56;;;;;;;14.50;8.70;;;;;;;0.31;92.52;97350.41;215696;1267;140123;-72
2024/01/15 08:58:59;;;;;;;12.70;11.00;;;;;;;0.30;92.44;97349.46;215731;1267;141050;-72
2024/01/15 09:04:02;;;;;;;9.30;7.30;;;;;;;0.31;92.49;97352.95;216108;1267;140907;-69
2024/01/15 09:09:06;;;;;;;7.50;5.50;;;;;;;0.35;92.48;97361.23;216050;1265;139956;-73
2024/01/15 09:14:09;;;;;;;9.60;6.60;;;;;;;0.32;92.24;97358.72;215888;1267;141409;-75
2024/01/15 09:19:11;;;;;;;8.90;5.50;;;;;;;0.30;92.66;97357.59;215984;1268;139956;-72
2024/01/15 09:24:14;;;;;;;8.20;5.60;;;;;;;0.30;92.19;97348.22;215919;1268;151521;-76
2024/01/15 09:29:18;;;;;;;6.10;4.40;;;;;;;0.30;91.77;97350.10;215919;1267;140586;-69
2024/01/15 09:34:20;;;;;;;10.40;6.60;;;;;;;0.37;92.04;97350.13;215971;1266;140565;-74
2024/01/15 09:39:24;;;;;;;12.10;7.00;;;;;;;0.44;91.83;97345.94;216028;1268;141698;-73
2024/01/15 09:44:28;;;;;;;8.30;5.50;;;;;;;0.48;91.71;97349.54;217278;1267;140331;-73
2024/01/15 09:49:31;;;;;;;7.10;5.20;;;;;;;0.48;91.39;97352.23;216043;1267;140428;-73
2024/01/15 09:54:34;;;;;;;10.60;5.10;;;;;;;0.48;91.39;97347.45;216210;1266;140877;-76
2024/01/15 09:59:39;;;;;;;8.10;5.90;;;;;;;0.43;91.27;97342.61;216269;1265;142177;-75
2024/01/15 10:04:43;;;;;;;10.40;6.10;;;;;;;0.41;91.02;97349.59;216080;1268;141095;-74
2024/01/15 10:09:46;;;;;;;10.40;5.70;;;;;;;0.36;90.92;97347.23;215951;1267;143061;-73
2024/01/15 10:14:50;;;;;;;9.90;5.90;;;;;;;0.32;90.95;97345.41;216270;1266;139780;-72
2024/01/15 10:19:53;;;;;;;9.80;5.00;;;;;;;0.28;90.90;97341.46;216078;1267;141767;-72
2024/01/15 10:24:56;;;;;;;9.50;6.40;;;;;;;0.26;90.79;97337.70;216153;1267;140634;-72
2024/01/15 10:30:00;;;;;;;9.30;6.20;;;;;;;0.26;90.75;97332.98;215552;1266;290231;-72
2024/01/15 10:35:04;;;;;;;10.00;5.40;;;;;;;0.26;90.92;97330.48;215825;1268;140216;-73
2024/01/15 10:40:07;;;;;;;9.30;6.20;;;;;;;0.26;90.89;97331.52;215949;1268;143495;-76
2024/01/15 10:45:10;;;;;;;9.20;5.00;;;;;;;0.29;90.78;97327.70;215941;1265;140264;-73
2024/01/15 10:50:14;;;;;;;6.00;4.90;;;;;;;0.36;90.36;97325.79;216019;1267;140798;-73
2024/01/15 10:55:17;;;;;;;11.10;6.10;;;;;;;0.46;90.59;97319.00;216268;1268;140181;-69
2024/01/15 11:00:22;;;;;;;10.90;5.70;;;;;;;0.56;90.42;97316.13;216142;1266;140750;-74
2024/01/15 11:05:26;;;;;;;7.60;3.90;;;;;;;0.60;90.36;97316.89;215944;1265;140885;-72
2024/01/15 11:10:46;;;;;;;10.30;5.10;;;;;;;0.55;89.94;97313.96;217761;1267;140242;-72
2024/01/15 11:16:00;;;;;;;11.80;6.30;;;;;;;0.50;90.02;97321.44;216488;1268;139946;-71
2024/01/15 11:21:14;;;;;;;8.60;6.10;;;;;;;0.49;89.49;97313.35;215776;1270;140852;-73
2024/01/15 11:26:42;;;;;;;7.70;5.30;;;;;;;0.49;89.51;97305.44;215908;1266;140528;-72
2024/01/15 11:31:47;;;;;;;9.80;5.10;;;;;;;0.45;89.42;97300.42;216013;1269;140981;-73
2024/01/15 11:36:56;;;;;;;8.50;5.20;;;;;;;0.43;89.51;97290.04;215891;1269;140325;-74
2024/01/15 11:42:03;;;;;;;10.40;5.10;;;;;;;0.44;89.61;97290.33;216020;1268;140267;-73
2024/01/15 11:47:12;;;;;;;12.70;6.40;;;;;;;0.50;89.21;97290.71;217058;1266;141380;-72
2024/01/15 11:52:21;;;;;;;8.40;5.40;;;;;;;0.52;89.22;97293.17;216505;1270;141137;-71
2024/01/15 11:57:36;;;;;;;6.70;3.80;;;;;;;0.51;89.05;97301.25;215825;1265;140466;-71
2024/01/15 12:02:43;;;;;;;8.60;4.10;;;;;;;0.51;88.78;97301.34;215751;1268;142411;-69
2024/01/15 12:07:48;;;;;;;7.60;4.70;;;;;;;0.55;88.98;97304.83;216041;1267;140102;-72
2024/01/15 12:13:00;;;;;;;7.40;4.10;;;;;;;0.65;88.66;97303.45;216238;1268;141195;-71
2024/01/15 12:18:03;;;;;;;6.70;4.00;;;;;;;0.73;88.20;97308.39;215875;1270;140764;-72
2024/01/15 12:23:06;;;;;;;7.90;4.90;;;;;;;0.75;88.24;97304.10;217236;1267;140849;-70
2024/01/15 12:28:11;;;;;;;7.70;5.60;;;;;;;0.87;88.26;97313.36;215984;1268;140760;-70
2024/01/15 12:33:19;;;;;;;7.40;4.40;;;;;;;1.00;87.92;97311.72;216443;1269;139638;-72
2024/01/15 12:38:23;;;;;;;11.10;5.50;;;;;;;1.01;87.85;97313.67;216040;1267;141283;-71
2024/01/15 12:43:27;;;;;;;5.10;4.60;;;;;;;0.97;87.70;97303.31;216176;1265;139565;-71
2024/01/15 12:48:30;;;;;;;7.70;5.20;;;;;;;0.90;87.59;97300.10;215870;1267;141357;-70
2024/01/15 12:53:34;;;;;;;5.80;3.40;;;;;;;0.87;87.26;97301.66;216376;1268;139550;-69
2024/01/15 12:58:38;;;;;;;5.90;3.70;;;;;;;0.89;87.59;97308.89;216267;1269;140503;-71
2024/01/15 13:03:41;;;;;;;8.00;4.00;;;;;;;0.89;86.89;97302.59;215819;1270;140702;-70
2024/01/15 13:08:44;;;;;;;5.90;3.40;;;;;;;0.97;87.39;97304.84;217629;1266;139776;-70
2024/01/15 13:13:47;;;;;;;6.10;3.50;;;;;;;1.02;86.96;97305.98;216698;1268;140361;-71
2024/01/15 13:18:51;;;;;;;6.50;3.70;;;;;;;1.06;86.96;97299.30;216609;1267;140330;-71
2024/01/15 13:23:54;;;;;;;8.90;3.90;;;;;;;1.02;86.73;97294.29;216090;1268;140404;-70
2024/01/15 13:28:59;;;;;;;11.10;5.70;;;;;;;0.96;86.35;97288.46;216637;1269;140314;-70
2024/01/15 13:34:01;;;;;;;11.00;4.90;;;;;;;0.98;86.44;97290.85;215674;1269;140797;-72
2024/01/15 13:39:08;;;;;;;9.90;4.10;;;;;;;0.94;86.32;97290.77;215536;1267;140435;-73
2024/01/15 13:44:12;;;;;;;6.90;3.80;;;;;;;0.90;86.12;97289.09;215584;1269;140048;-72
2024/01/15 13:49:14;;;;;;;5.80;2.60;;;;;;;0.84;85.97;97299.61;216894;1266;140607;-71
2024/01/15 13:54:19;;;;;;;6.10;3.70;;;;;;;0.78;85.74;97308.45;216037;1267;140571;-71
2024/01/15 13:59:25;;;;;;;6.20;3.50;;;;;;;0.77;86.09;97307.13;216107;1270;140076;-72
2024/01/15 14:04:27;;;;;;;9.80;4.30;;;;;;;0.72;86.31;97315.82;215860;1266;141451;-72
2024/01/15 14:09:31;;;;;;;4.90;3.40;;;;;;;0.68;85.80;97307.87;216591;1267;140222;-71
2024/01/15 14:14:35;;;;;;;7.70;3.70;;;;;;;0.60;85.97;97309.34;215884;1269;140116;-71
2024/01/15 14:19:37;;;;;;;8.20;4.60;;;;;;;0.47;86.24;97307.02;216012;1267;140636;-70
2024/01/15 14:24:40;;;;;;;8.60;4.10;;;;;;;0.42;85.87;97307.52;215722;1269;140620;-71
2024/01/15 14:29:43;;;;;;;10.30;3.50;;;;;;;0.40;85.87;97301.61;216893;1268;140353;-69
2024/01/15 14:34:46;;;;;;;6.80;3.70;;;;;;;0.38;86.38;97305.03;215981;1269;140016;-69
2024/01/15 14:39:52;;;;;;;5.60;3.60;;;;;;;0.38;86.34;97308.42;216320;1268;140128;-74
2024/01/15 14:44:55;;;;;;;6.90;3.60;;;;;;;0.35;85.82;97306.48;216026;1268;139747;-71
2024/01/15 14:49:58;;;;;;;6.10;3.00;;;;;;;0.33;85.59;97311.64;215743;1268;139885;-73
2024/01/15 14:55:01;;;;;;;6.30;3.60;;;;;;;0.31;85.93;97320.35;216432;1268;139890;-70
2024/01/15 15:00:08;;;;;;;7.60;4.50;;;;;;;0.30;86.19;97312.68;215997;1268;140705;-72
2024/01/15 15:05:10;;;;;;;5.40;3.60;;;;;;;0.28;85.47;97314.42;217090;1268;140449;-73
2024/01/15 15:10:12;;;;;;;5.70;2.20;;;;;;;0.23;85.82;97315.25;215890;1268;140383;-73
2024/01/15 15:15:16;;;;;;;5.10;3.50;;;;;;;0.15;86.07;97317.88;215844;1270;140752;-74
2024/01/15 15:20:23;;;;;;;4.40;2.70;;;;;;;0.10;86.09;97318.54;215974;1268;140140;-74
2024/01/15 15:25:31;;;;;;;5.10;4.00;;;;;;;0.09;86.06;97312.23;216100;1267;140333;-73
2024/01/15 15:30:34;;;;;;;9.40;4.20;;;;;;;0.10;86.29;97315.55;216012;1267;140629;-73
2024/01/15 15:35:36;;;;;;;6.70;3.50;;;;;;;0.12;86.05;97315.83;215935;1268;140618;-72
2024/01/15 15:40:39;;;;;;;9.40;3.60;;;;;;;0.16;86.01;97320.78;216387;1267;140469;-74
2024/01/15 15:45:42;;;;;;;6.40;3.40;;;;;;;0.19;85.83;97334.06;216081;1266;139787;-75
2024/01/15 15:50:44;;;;;;;5.70;3.80;;;;;;;0.20;85.94;97333.93;215948;1269;140705;-76
2024/01/15 15:55:50;;;;;;;9.80;4.80;;;;;;;0.18;85.66;97334.36;215987;1269;140799;-75
2024/01/15 16:00:56;;;;;;;10.70;4.20;;;;;;;0.15;85.82;97329.41;216099;1267;140818;-72
2024/01/15 16:05:58;;;;;;;11.10;5.60;;;;;;;0.12;85.83;97348.88;215910;1268;140046;-72
2024/01/15 16:11:02;;;;;;;9.90;3.90;;;;;;;0.10;85.75;97345.29;216154;1267;141347;-70
2024/01/15 16:16:04;;;;;;;8.20;4.20;;;;;;;0.10;86.07;97345.02;216990;1269;139634;-73
2024/01/15 16:21:27;;;;;;;9.00;4.80;;;;;;;0.10;85.98;97339.29;216091;1269;141078;-73
2024/01/15 16:26:50;;;;;;;6.70;3.60;;;;;;;0.10;85.72;97349.56;216170;1268;139848;-74
2024/01/15 16:31:56;;;;;;;6.90;4.50;;;;;;;0.10;85.76;97348.92;215921;1268;141178;-71
2024/01/15 16:36:58;;;;;;;10.30;5.90;;;;;;;0.08;85.85;97339.98;216195;1268;140754;-72
2024/01/15 16:42:08;;;;;;;12.90;6.00;;;;;;;0.09;85.72;97339.06;215974;1267;140972;-73
2024/01/15 16:47:15;;;;;;;12.30;6.60;;;;;;;0.08;86.13;97340.39;216789;1268;140173;-74
2024/01/15 16:52:18;;;;;;;8.90;4.10;;;;;;;0.09;86.16;97343.73;215944;1267;141250;-79
2024/01/15 16:57:21;;;;;;;8.90;4.60;;;;;;;0.09;86.18;97344.87;216035;1269;139971;-77
2024/01/15 17:02:35;;;;;;;9.10;5.90;;;;;;;0.07;86.25;97352.83;216028;1270;140020;-78
2024/01/15 17:07:42;;;;;;;7.20;4.00;;;;;;;0.04;86.28;97351.34;216061;1270;139777;-73
2024/01/15 17:12:47;;;;;;;7.20;4.60;;;;;;;0.00;86.40;97345.20;216441;1269;140651;-71
2024/01/15 17:17:50;;;;;;;6.10;4.40;;;;;;;-0.04;86.12;97340.40;216120;1268;140356;-71
2024/01/15 17:22:52;;;;;;;7.40;4.10;;;;;;;-0.06;86.20;97338.77;215959;1270;139958;-75
2024/01/15 17:27:56;;;;;;;7.50;3.90;;;;;;;-0.08;86.57;97343.13;216153;1268;140619;-73
2024/01/15 17:32:59;;;;;;;9.50;4.80;;;;;;;-0.08;86.37;97338.86;216038;1269;140768;-71
2024/01/15 17:38:03;;;;;;;7.70;4.50;;;;;;;-0.09;86.51;97338.95;215849;1269;140838;-71
2024/01/15 17:43:06;;;;;;;9.70;4.20;;;;;;;-0.10;86.51;97341.45;216093;1270;140013;-73
2024/01/15 17:48:09;;;;;;;9.80;5.20;;;;;;;-0.08;86.37;97340.23;215794;1267;140776;-71
2024/01/15 17:53:12;;;;;;;9.30;4.30;;;;;;;-0.07;86.73;97340.21;215946;1270;139707;-70
2024/01/15 17:58:15;;;;;;;10.80;5.60;;;;;;;-0.07;86.64;97355.04;216016;1269;140249;-70
2024/01/15 18:03:18;;;;;;;6.00;3.50;;;;;;;-0.04;86.98;97412.77;216018;1271;141043;-73
2024/01/15 18:08:20;;;;;;;2.50;2.10;;;;;;;-0.20;86.69;97431.63;216075;1270;139674;-73
2024/01/15 18:13:23;;;;;;;2.10;1.30;;;;;;;-0.54;89.39;97436.62;215889;1269;140036;-75
2024/01/15 18:18:25;;;;;;;1.40;1.30;;;;;;;-0.84;89.28;97422.96;216038;1269;139911;-71
2024/01/15 18:23:28;;;;;;;2.60;1.30;;;;;;;-1.00;89.63;97431.15;216028;1269;140059;-73
2024/01/15 18:28:31;;;;;;;7.40;1.90;;;;;;;-1.10;89.84;97437.08;215735;1270;140763;-69
2024/01/15 18:33:37;;;;;;;6.50;6.00;;;;;;;-1.17;89.79;97452.10;215822;1270;140836;-74
2024/01/15 18:38:40;;;;;;;6.30;3.50;;;;;;;-1.24;89.60;97453.59;215802;1265;140471;-77
2024/01/15 18:43:43;;;;;;;3.80;3.10;;;;;;;-1.30;89.72;97461.52;215945;1267;142182;-71
2024/01/15 18:48:46;;;;;;;3.30;3.00;;;;;;;-1.29;90.23;97464.73;216541;1265;140748;-72
2024/01/15 18:53:50;;;;;;;7.80;3.60;;;;;;;-1.26;89.94;97470.58;216124;1269;140541;-74
2024/01/15 18:58:56;;;;;;;8.10;3.60;;;;;;;-1.23;89.57;97486.04;215833;1270;139888;-74
2024/01/15 19:03:59;;;;;;;4.50;2.40;;;;;;;-1.23;89.32;97494.45;215918;1267;141126;-76
2024/01/15 19:09:03;;;;;;;4.30;3.40;;;;;;;-1.27;88.93;97504.77;216091;1272;139912;-78
2024/01/15 19:14:06;;;;;;;5.40;2.60;;;;;;;-1.32;88.43;97508.63;216143;1267;140332;-76
2024/01/15 19:19:09;;;;;;;5.50;3.20;;;;;;;-1.37;88.67;97519.67;216000;1271;140605;-72
2024/01/15 19:24:12;;;;;;;5.40;2.80;;;;;;;-1.40;88.12;97529.50;216041;1271;140339;-74
2024/01/15 19:29:14;;;;;;;7.20;4.00;;;;;;;-1.41;87.93;97538.91;216356;1267;140015;-73
2024/01/15 19:34:20;;;;;;;3.40;3.10;;;;;;;-1.42;87.70;97550.49;217475;1267;141286;-73
2024/01/15 19:39:24;;;;;;;3.00;2.70;;;;;;;-1.43;87.65;97557.21;215741;1273;141233;-72
2024/01/15 19:44:30;;;;;;;4.40;3.60;;;;;;;-1.44;87.72;97572.86;215737;1271;141382;-73
2024/01/15 19:49:42;;;;;;;6.70;4.40;;;;;;;-1.44;87.60;97580.05;216386;1267;141274;-71
2024/01/15 19:54:46;;;;;;;5.50;3.50;;;;;;;-1.41;87.47;97588.20;215636;1272;139851;-73
2024/01/15 19:59:48;;;;;;;4.70;3.50;;;;;;;-1.39;87.16;97594.91;215944;1267;140370;-78
2024/01/15 20:04:54;;;;;;;5.90;3.50;;;;;;;-1.38;86.87;97611.63;216070;1270;140016;-75
2024/01/15 20:09:57;;;;;;;5.10;4.00;;;;;;;-1.38;86.94;97622.55;215861;1273;140368;-73
2024/01/15 20:15:00;;;;;;;9.90;6.00;;;;;;;-1.37;86.43;97631.69;215796;1268;139949;-74
2024/01/15 20:20:03;;;;;;;4.90;2.80;;;;;;;-1.39;85.89;97635.11;215878;1270;140617;-74
2024/01/15 20:25:09;;;;;;;11.60;5.60;;;;;;;-1.45;85.12;97638.03;216416;1271;140027;-75
2024/01/15 20:30:12;;;;;;;6.20;3.00;;;;;;;-1.50;84.55;97663.09;215954;1272;140227;-77
2024/01/15 20:35:22;;;;;;;2.90;2.10;;;;;;;-1.59;84.05;97675.70;215785;1274;140391;-74
2024/01/15 20:40:30;;;;;;;3.10;2.80;;;;;;;-1.68;83.99;97690.44;215814;1268;144096;-77
2024/01/15 20:45:36;;;;;;;5.30;2.80;;;;;;;-1.72;83.51;97696.71;216141;1272;143448;-74
2024/01/15 20:50:41;;;;;;;6.20;4.30;;;;;;;-1.75;83.23;97707.73;215787;1269;140138;-74
2024/01/15 20:55:44;;;;;;;6.80;3.50;;;;;;;-1.80;83.08;97720.64;215996;1267;140502;-73
2024/01/15 21:00:47;;;;;;;5.90;2.90;;;;;;;-1.88;82.65;97733.70;215846;1266;141092;-72
2024/01/15 21:05:50;;;;;;;8.80;3.30;;;;;;;-1.89;82.57;97743.09;216140;1272;139600;-71
2024/01/15 21:10:53;;;;;;;2.50;1.80;;;;;;;-1.88;82.51;97752.09;215727;1272;140525;-71
2024/01/15 21:15:56;;;;;;;3.50;2.50;;;;;;;-1.92;82.31;97753.55;216627;1267;140228;-73
2024/01/15 21:20:59;;;;;;;5.50;2.50;;;;;;;-1.95;81.90;97758.04;216041;1270;140200;-73
2024/01/15 21:26:02;;;;;;;4.20;2.80;;;;;;;-2.01;81.71;97763.11;215799;1273;140517;-73
2024/01/15 21:31:05;;;;;;;3.60;1.80;;;;;;;-2.05;81.63;97775.52;215854;1268;140405;-75
2024/01/15 21:36:09;;;;;;;4.50;2.20;;;;;;;-2.07;81.61;97781.38;215741;1267;140251;-73
2024/01/15 21:41:12;;;;;;;8.40;2.60;;;;;;;-2.09;81.53;97793.02;215798;1270;141344;-73
2024/01/15 21:46:15;;;;;;;3.30;1.80;;;;;;;-2.06;81.43;97810.58;215539;1270;140556;-76
2024/01/15 21:51:18;;;;;;;8.20;3.50;;;;;;;-2.05;81.52;97817.20;215832;1272;140953;-74
2024/01/15 21:56:22;;;;;;;4.30;2.70;;;;;;;-2.04;81.38;97822.83;215755;1267;139758;-73
2024/01/15 22:01:25;;;;;;;4.00;3.30;;;;;;;-2.02;81.18;97831.91;216565;1267;140951;-75
2024/01/15 22:06:28;;;;;;;5.60;2.40;;;;;;;-2.01;81.11;97839.42;215706;1268;141182;-74
2024/01/15 22:11:31;;;;;;;5.20;2.60;;;;;;;-2.00;80.99;97837.05;216647;1270;139986;-73
2024/01/15 22:16:35;;;;;;;6.80;3.10;;;;;;;-2.00;80.95;97848.95;216683;1267;140824;-72
2024/01/15 22:21:43;;;;;;;3.70;2.10;;;;;;;-2.00;80.59;97854.08;216219;1267;139960;-73
2024/01/15 22:26:46;;;;;;;3.60;2.40;;;;;;;-2.00;80.47;97858.11;215719;1269;139742;-74
2024/01/15 22:31:49;;;;;;;4.70;1.90;;;;;;;-2.00;80.45;97869.75;215688;1267;380435;-73
2024/01/15 22:36:53;;;;;;;2.60;2.40;;;;;;;-2.00;80.32;97872.52;215753;1267;140871;-71
2024/01/15 22:41:56;;;;;;;6.20;2.80;;;;;;;-2.04;80.22;97872.63;215796;1267;140202;-70
2024/01/15 22:47:00;;;;;;;3.50;2.00;;;;;;;-2.07;80.01;97872.10;215703;1272;140858;-74
2024/01/15 22:52:03;;;;;;;16.80;8.10;;;;;;;-2.07;79.90;97882.15;216061;1267;141519;-76
2024/01/15 22:57:06;;;;;;;13.00;5.40;;;;;;;-2.07;80.09;97890.14;215798;1267;141153;-72
2024/01/15 23:02:09;;;;;;;5.00;3.40;;;;;;;-2.08;80.02;97899.30;215692;1267;140538;-71
2024/01/15 23:07:13;;;;;;;11.30;5.00;;;;;;;-2.09;79.93;97901.80;215972;1267;140202;-72
2024/01/15 23:12:16;;;;;;;10.00;4.00;;;;;;;-2.11;79.83;97914.59;216364;1272;140608;-71
2024/01/15 23:17:19;;;;;;;4.10;3.20;;;;;;;-2.09;79.84;97912.11;215688;1267;141540;-73